Time;durP1;ratioP1;P1;durP2;ratioP2;P2;SDS_P1;SDS_P2;PMS_P1;PMS_P2;Temp;Humidity;BMP_temperature;BMP_pressure;BME280_temperature;BME280_humidity;BME280_pressure;Samples;Min_cycle;Max_cycle;Signal;HPM_P1;HPM_P2
2022/05/04 00:00:44;;;;;;;11.70;4.47;;;;;;;10.49;59.55;101710.06;3598685;39;20075;-63
2022/05/04 00:03:11;;;;;;;9.57;4.60;;;;;;;10.41;59.53;101708.63;3600488;39;20065;-63
2022/05/04 00:05:36;;;;;;;10.20;4.57;;;;;;;10.36;59.76;101705.25;3598762;39;20663;-63
2022/05/04 00:08:02;;;;;;;8.35;4.57;;;;;;;10.38;60.49;101715.97;3601781;39;20387;-63
2022/05/04 00:10:30;;;;;;;13.65;4.63;;;;;;;10.30;59.76;101710.91;3600324;39;20063;-63
2022/05/04 00:12:57;;;;;;;14.07;4.70;;;;;;;10.23;60.60;101715.69;3599729;39;20064;-62
2022/05/04 00:15:23;;;;;;;8.32;4.53;;;;;;;10.00;60.48;101680.94;3599737;39;20120;-62
2022/05/04 00:17:49;;;;;;;9.30;4.30;;;;;;;10.05;61.14;101699.53;3600198;39;20065;-63
2022/05/04 00:20:15;;;;;;;11.32;4.97;;;;;;;10.06;61.11;101701.28;3600921;39;20308;-62
2022/05/04 00:22:40;;;;;;;11.82;5.35;;;;;;;9.91;61.07;101684.06;3598284;39;20062;-65
2022/05/04 00:25:07;;;;;;;8.63;4.38;;;;;;;9.95;61.27;101704.44;3600395;39;20274;-62
2022/05/04 00:27:33;;;;;;;12.82;4.78;;;;;;;9.89;61.43;101693.97;3599004;39;20072;-62
2022/05/04 00:29:58;;;;;;;12.27;5.35;;;;;;;9.91;61.72;101703.72;3600669;39;20082;-62
2022/05/04 00:32:24;;;;;;;13.55;5.00;;;;;;;9.90;61.53;101701.97;3601113;39;20043;-63
2022/05/04 00:34:50;;;;;;;14.10;5.22;;;;;;;9.91;62.22;101706.41;3599948;39;20313;-63
2022/05/04 00:37:15;;;;;;;11.15;5.03;;;;;;;9.84;62.52;101707.63;3599515;39;20124;-61
2022/05/04 00:39:41;;;;;;;9.15;5.05;;;;;;;9.89;62.65;101712.78;3600731;39;20059;-62
2022/05/04 00:42:13;;;;;;;11.20;5.32;;;;;;;9.71;62.26;101684.97;3603133;39;20059;-63
2022/05/04 00:44:42;;;;;;;16.75;5.38;;;;;;;9.79;62.38;101698.88;3598877;39;20203;-63
2022/05/04 00:47:09;;;;;;;10.70;4.90;;;;;;;9.90;62.20;101703.81;3597936;39;20093;-63
2022/05/04 00:49:36;;;;;;;9.73;5.32;;;;;;;9.90;62.29;101701.97;3599995;39;20067;-63
2022/05/04 00:52:05;;;;;;;10.88;4.97;;;;;;;9.92;62.13;101708.13;3601036;39;20409;-63
2022/05/04 00:54:34;;;;;;;12.55;5.53;;;;;;;9.92;61.96;101702.75;3598188;39;20083;-63
2022/05/04 00:57:02;;;;;;;15.32;5.35;;;;;;;9.96;62.71;101699.03;3599990;39;20051;-63
2022/05/04 00:59:32;;;;;;;16.10;5.63;;;;;;;9.81;62.68;101677.34;3600738;39;20093;-62
2022/05/04 01:01:58;;;;;;;8.50;5.63;;;;;;;10.04;61.94;101703.16;3600342;39;20439;-62
2022/05/04 01:04:25;;;;;;;10.55;5.82;;;;;;;9.96;62.12;101684.72;3600055;39;20327;-62
2022/05/04 01:06:52;;;;;;;10.00;5.35;;;;;;;10.07;61.95;101692.28;3601155;39;20059;-62
2022/05/04 01:09:18;;;;;;;11.70;6.32;;;;;;;10.14;62.06;101699.97;3601062;39;20054;-62
2022/05/04 01:11:46;;;;;;;9.90;6.05;;;;;;;10.20;62.41;101704.19;3599094;39;20067;-62
2022/05/04 01:14:14;;;;;;;11.80;6.30;;;;;;;10.23;62.03;101704.94;3604173;39;20379;-62
2022/05/04 01:16:43;;;;;;;12.15;5.63;;;;;;;10.28;61.43;101698.53;3602445;39;20043;-62
2022/05/04 01:19:12;;;;;;;12.93;6.28;;;;;;;10.33;62.09;101700.03;3599602;39;20047;-63
2022/05/04 01:21:38;;;;;;;10.35;5.45;;;;;;;10.32;61.74;101700.97;3597109;39;20096;-64
2022/05/04 01:24:04;;;;;;;12.63;6.07;;;;;;;10.39;61.80;101710.50;3600704;39;20600;-62
2022/05/04 01:26:30;;;;;;;12.77;5.82;;;;;;;10.27;61.19;101678.81;3599412;39;20062;-63
2022/05/04 01:28:56;;;;;;;9.60;5.50;;;;;;;10.45;61.04;101699.47;3599168;39;20059;-64
2022/05/04 01:31:23;;;;;;;10.52;5.15;;;;;;;10.26;60.64;101671.72;3600019;39;20382;-63
2022/05/04 01:33:49;;;;;;;13.77;5.53;;;;;;;10.40;60.79;101690.75;3600619;39;20638;-64
2022/05/04 01:36:15;;;;;;;12.77;5.88;;;;;;;10.53;60.44;101701.81;3600397;39;20051;-61
2022/05/04 01:38:40;;;;;;;12.40;5.68;;;;;;;10.52;60.69;101696.47;3597831;39;20314;-63
2022/05/04 01:42:02;;;;;;;8.10;5.32;;;;;;;10.51;61.33;101694.75;3599580;39;20075;-63
2022/05/04 01:43:51;;;;;;;13.27;5.68;;;;;;;10.50;60.04;101701.03;3598859;39;20135;-63
2022/05/04 01:46:17;;;;;;;10.30;4.75;;;;;;;10.45;61.14;101688.69;3599251;39;20055;-64
2022/05/04 01:48:44;;;;;;;13.52;5.43;;;;;;;10.51;60.78;101708.19;3597966;39;20386;-63
2022/05/04 01:51:09;;;;;;;16.55;8.52;;;;;;;10.49;60.36;101699.31;3599966;39;20067;-64
2022/05/04 01:53:35;;;;;;;11.60;6.03;;;;;;;10.50;60.89;101690.28;3598118;39;20099;-64
2022/05/04 01:56:07;;;;;;;10.02;5.15;;;;;;;10.55;60.71;101705.25;3600118;39;20047;-63
2022/05/04 01:58:33;;;;;;;10.80;5.60;;;;;;;10.56;60.72;101698.06;3597351;39;20064;-63
2022/05/04 02:00:58;;;;;;;12.27;5.85;;;;;;;10.57;60.62;101700.69;3601043;39;20069;-63
2022/05/04 02:03:25;;;;;;;10.07;5.40;;;;;;;10.50;60.12;101684.91;3588801;39;20110;-62
2022/05/04 02:05:51;;;;;;;13.73;5.72;;;;;;;10.56;60.63;101696.28;3599490;39;20056;-64
2022/05/04 02:08:17;;;;;;;12.13;5.43;;;;;;;10.48;60.37;101676.06;3599712;39;20120;-61
2022/05/04 02:10:42;;;;;;;15.90;5.93;;;;;;;10.54;60.22;101695.47;3597689;39;20055;-63
2022/05/04 02:13:08;;;;;;;11.73;5.45;;;;;;;10.38;60.82;101670.28;3599637;39;20051;-63
2022/05/04 02:15:33;;;;;;;10.85;5.07;;;;;;;10.55;60.81;101690.97;3596546;39;20071;-61
2022/05/04 02:17:59;;;;;;;10.85;5.30;;;;;;;10.49;59.91;101686.75;3599907;39;20063;-62
2022/05/04 02:20:25;;;;;;;12.93;5.07;;;;;;;10.43;60.51;101671.81;3598350;39;20123;-61
2022/05/04 02:22:51;;;;;;;11.98;5.28;;;;;;;10.52;59.92;101683.03;3598158;39;20137;-63
2022/05/04 02:25:17;;;;;;;10.35;4.85;;;;;;;10.49;60.13;101675.13;3599683;39;20052;-62
2022/05/04 02:27:43;;;;;;;13.20;5.63;;;;;;;10.56;60.06;101687.31;3586405;39;20067;-61
2022/05/04 02:30:09;;;;;;;10.27;4.80;;;;;;;10.51;59.94;101681.31;3598725;39;20059;-62
2022/05/04 02:32:35;;;;;;;15.70;5.57;;;;;;;10.52;60.79;101677.66;3596875;39;20073;-62
2022/05/04 02:37:57;;;;;;;10.43;4.97;;;;;;;10.66;60.06;101685.94;3600911;39;20067;-62
2022/05/04 02:40:27;;;;;;;13.75;5.45;;;;;;;10.64;59.48;101691.38;3598584;39;20039;-63
2022/05/04 02:42:54;;;;;;;9.20;5.15;;;;;;;10.58;60.00;101688.13;3599637;39;20060;-62
2022/05/04 02:45:20;;;;;;;9.05;4.97;;;;;;;10.57;59.81;101683.69;3598763;39;20047;-63
2022/05/04 02:47:46;;;;;;;10.98;5.22;;;;;;;10.59;59.67;101684.47;3589021;39;20055;-62
2022/05/04 02:50:12;;;;;;;11.45;5.45;;;;;;;10.44;60.30;101673.53;3592023;39;20044;-61
2022/05/04 02:52:37;;;;;;;14.40;5.20;;;;;;;10.47;60.46;101675.22;3598619;39;20141;-62
2022/05/04 02:55:04;;;;;;;12.07;4.82;;;;;;;10.50;60.64;101690.28;3599580;39;20045;-62
2022/05/04 02:57:30;;;;;;;9.43;4.85;;;;;;;10.48;59.93;101678.75;3600093;39;20172;-61
2022/05/04 02:59:55;;;;;;;11.00;4.50;;;;;;;10.48;60.12;101678.75;3600863;39;20074;-64
2022/05/04 03:02:27;;;;;;;12.90;5.55;;;;;;;10.38;59.62;101668.44;3600913;39;20051;-62
2022/05/04 03:05:03;;;;;;;13.77;5.30;;;;;;;10.41;60.36;101671.00;3600176;39;20083;-62
2022/05/04 03:07:29;;;;;;;11.73;6.10;;;;;;;10.23;60.28;101644.94;3599115;39;20039;-63
2022/05/04 03:09:57;;;;;;;10.57;4.63;;;;;;;10.36;59.77;101678.38;3600201;39;20416;-63
2022/05/04 03:12:23;;;;;;;15.38;5.72;;;;;;;10.33;60.35;101673.16;3599266;39;20051;-64
2022/05/04 03:14:49;;;;;;;9.95;4.70;;;;;;;10.25;60.75;101664.56;3599667;39;20063;-63
2022/05/04 03:17:16;;;;;;;10.75;5.40;;;;;;;10.10;60.26;101639.28;3600394;39;20137;-63
2022/05/04 03:19:41;;;;;;;15.90;5.40;;;;;;;10.25;59.97;101667.25;3601526;39;20096;-63
2022/05/04 03:22:07;;;;;;;13.05;4.65;;;;;;;10.26;60.05;101671.72;3595384;39;20055;-63
2022/05/04 03:24:33;;;;;;;12.95;5.25;;;;;;;10.24;59.76;101668.19;3602900;39;20044;-63
2022/05/04 03:26:59;;;;;;;10.30;4.95;;;;;;;10.20;59.88;101663.91;3602328;39;20100;-63
2022/05/04 03:29:25;;;;;;;10.73;5.13;;;;;;;10.07;60.07;101639.44;3603404;39;20057;-63
2022/05/04 03:31:50;;;;;;;14.30;5.22;;;;;;;10.09;60.36;101650.13;3604070;39;20067;-63
2022/05/04 03:34:16;;;;;;;11.40;5.30;;;;;;;9.98;60.90;101643.41;3604888;39;20047;-63
2022/05/04 03:36:42;;;;;;;13.38;5.70;;;;;;;9.97;60.49;101660.47;3603437;39;20117;-64
2022/05/04 03:39:09;;;;;;;12.43;5.57;;;;;;;9.98;61.07;101659.50;3603046;39;20057;-63
2022/05/04 03:41:35;;;;;;;8.27;5.20;;;;;;;9.95;61.58;101662.34;3601734;39;20618;-63
2022/05/04 03:44:02;;;;;;;12.82;5.22;;;;;;;9.99;61.56;101663.97;3602083;39;20089;-63
2022/05/04 03:46:41;;;;;;;12.02;5.32;;;;;;;9.77;60.97;101630.97;3600495;39;20152;-63
2022/05/04 03:49:08;;;;;;;10.57;5.30;;;;;;;9.95;61.61;101666.84;3590778;39;20112;-64
2022/05/04 03:51:34;;;;;;;11.88;5.32;;;;;;;9.89;61.16;101651.88;3601807;39;20052;-64
2022/05/04 03:54:00;;;;;;;13.70;5.97;;;;;;;9.85;61.52;101649.41;3601499;39;20095;-63
2022/05/04 03:56:26;;;;;;;12.60;5.65;;;;;;;9.82;61.67;101649.56;3600620;39;20070;-63
2022/05/04 03:58:51;;;;;;;14.52;5.35;;;;;;;9.85;61.26;101655.66;3602550;39;20066;-64
2022/05/04 04:01:18;;;;;;;12.45;5.70;;;;;;;9.80;62.13;101646.06;3601109;39;20052;-63
2022/05/04 04:03:44;;;;;;;14.60;5.72;;;;;;;9.66;61.33;101627.91;3601486;39;20391;-64
2022/05/04 04:06:11;;;;;;;11.57;5.28;;;;;;;9.76;62.60;101648.00;3601020;39;20054;-64
2022/05/04 04:08:37;;;;;;;12.93;5.55;;;;;;;9.79;62.15;101647.88;3592402;39;20051;-64
2022/05/04 04:11:03;;;;;;;9.38;5.53;;;;;;;9.84;62.35;101658.44;3602530;39;20148;-64
2022/05/04 04:13:30;;;;;;;9.93;5.18;;;;;;;9.80;62.28;101668.44;3599755;39;20374;-63
2022/05/04 04:15:56;;;;;;;11.43;6.15;;;;;;;9.75;62.00;101659.69;3600970;39;20067;-63
2022/05/04 04:18:24;;;;;;;16.15;6.93;;;;;;;9.74;65.58;101657.97;3602824;39;20061;-62
2022/05/04 04:23:37;;;;;;;15.52;6.45;;;;;;;9.65;64.72;101653.00;3600019;39;20112;-63
2022/05/04 04:26:05;;;;;;;18.40;6.55;;;;;;;9.65;65.76;101653.00;3602721;39;20128;-64
2022/05/04 04:28:38;;;;;;;13.82;5.85;;;;;;;9.61;63.95;101656.75;3599376;39;20099;-60
2022/05/04 04:31:05;;;;;;;15.35;5.78;;;;;;;9.43;63.96;101637.84;3633931;22;20425;-62
2022/05/04 04:33:31;;;;;;;15.68;6.43;;;;;;;9.55;63.48;101663.28;3599338;39;20437;-61
2022/05/04 04:35:59;;;;;;;16.13;6.30;;;;;;;9.54;63.50;101669.56;3597280;39;20132;-61
2022/05/04 04:38:26;;;;;;;14.90;6.55;;;;;;;9.33;64.21;101632.97;3598468;39;20069;-61
2022/05/04 04:40:51;;;;;;;12.60;5.82;;;;;;;9.45;64.12;101673.56;3594568;39;20417;-62
2022/05/04 04:43:18;;;;;;;12.98;6.43;;;;;;;9.39;64.99;101668.44;3591146;39;20051;-62
2022/05/04 04:45:45;;;;;;;14.20;6.15;;;;;;;9.40;63.76;101675.56;3580648;40;20438;-61
2022/05/04 04:48:11;;;;;;;13.85;5.82;;;;;;;9.36;64.26;101668.59;3591571;40;20128;-62
2022/05/04 04:50:37;;;;;;;14.20;6.85;;;;;;;9.36;65.02;101668.59;3589056;39;20386;-62
2022/05/04 04:53:03;;;;;;;16.02;6.20;;;;;;;9.35;63.84;101671.31;3589888;39;20060;-62
2022/05/04 04:55:29;;;;;;;16.20;6.55;;;;;;;9.38;64.24;101671.19;3589480;39;20054;-62
2022/05/04 04:57:54;;;;;;;15.27;7.07;;;;;;;9.33;65.41;101660.66;3589953;40;20417;-61
2022/05/04 05:00:21;;;;;;;12.32;6.55;;;;;;;9.37;64.84;101670.31;3590955;39;20674;-62
2022/05/04 05:02:47;;;;;;;13.95;6.43;;;;;;;9.37;64.47;101664.94;3588667;39;20136;-62
2022/05/04 05:05:13;;;;;;;13.15;6.28;;;;;;;9.36;64.16;101673.94;3592202;39;20064;-62
2022/05/04 05:07:39;;;;;;;13.38;6.28;;;;;;;9.35;64.68;101671.31;3590582;40;20165;-62
2022/05/04 05:10:06;;;;;;;13.32;6.10;;;;;;;9.32;64.04;101669.63;3591524;39;20067;-62
2022/05/04 05:12:32;;;;;;;16.38;6.10;;;;;;;9.31;65.18;101675.94;3589636;39;20048;-62
2022/05/04 05:17:43;;;;;;;18.30;6.80;;;;;;;9.32;65.10;101674.13;3590140;39;20062;-63
2022/05/04 05:20:10;;;;;;;15.50;6.82;;;;;;;9.29;63.94;101677.81;3589646;39;20467;-63
2022/05/04 05:22:36;;;;;;;15.13;6.38;;;;;;;9.31;64.42;101675.94;3587614;39;20161;-63
2022/05/04 05:25:03;;;;;;;14.45;6.50;;;;;;;9.32;64.28;101682.19;3588930;40;20615;-63
2022/05/04 05:27:32;;;;;;;12.32;6.07;;;;;;;9.34;65.10;101683.88;3589750;40;20056;-63
2022/05/04 05:29:58;;;;;;;17.15;6.82;;;;;;;9.37;64.02;101686.41;3590939;39;20051;-63
2022/05/04 05:32:24;;;;;;;17.98;6.68;;;;;;;9.42;64.55;101689.78;3590018;39;20067;-63
2022/05/04 05:34:50;;;;;;;14.00;6.40;;;;;;;9.43;63.68;101683.47;3587735;39;20402;-63
2022/05/04 05:37:17;;;;;;;14.25;6.22;;;;;;;9.33;63.61;101663.34;3590675;40;20062;-63
2022/05/04 05:39:43;;;;;;;12.45;5.63;;;;;;;9.43;64.18;101675.41;3590214;40;20048;-63
2022/05/04 05:42:09;;;;;;;13.50;6.15;;;;;;;9.43;63.57;101675.41;3589279;39;20064;-60
2022/05/04 05:44:35;;;;;;;11.25;6.25;;;;;;;9.47;63.96;101670.78;3590517;39;20051;-61
2022/05/04 05:47:01;;;;;;;12.73;6.10;;;;;;;9.50;64.02;101681.38;3590165;39;20068;-61
2022/05/04 05:49:28;;;;;;;14.98;6.22;;;;;;;9.49;62.71;101675.16;3590416;39;20083;-61
2022/05/04 05:51:54;;;;;;;14.27;5.95;;;;;;;9.36;62.74;101641.75;3588975;39;20153;-61
2022/05/04 05:54:20;;;;;;;17.80;6.50;;;;;;;9.60;62.91;101676.50;3591617;39;20362;-61
2022/05/04 05:56:46;;;;;;;9.52;5.65;;;;;;;9.65;62.78;101685.22;3590053;40;20138;-61
2022/05/04 05:59:12;;;;;;;14.38;6.18;;;;;;;9.68;62.27;101688.63;3588830;39;20124;-62
2022/05/04 06:01:38;;;;;;;15.60;6.00;;;;;;;9.74;62.74;101680.31;3588854;39;20066;-64
2022/05/04 06:04:07;;;;;;;16.75;6.40;;;;;;;9.61;62.42;101635.28;3590912;39;20306;-62
2022/05/04 06:06:32;;;;;;;14.32;6.63;;;;;;;9.87;61.72;101680.63;3589285;39;20059;-62
2022/05/04 06:08:58;;;;;;;14.50;6.43;;;;;;;9.92;61.63;101683.09;3589872;39;20060;-62
2022/05/04 06:11:23;;;;;;;11.90;5.82;;;;;;;9.97;61.05;101692.69;3590564;39;20060;-62
2022/05/04 06:13:53;;;;;;;11.90;5.63;;;;;;;10.08;61.37;101692.19;3589595;39;20060;-62
2022/05/04 06:16:20;;;;;;;14.90;6.18;;;;;;;10.16;61.45;101691.88;3590576;39;20954;-62
2022/05/04 06:18:45;;;;;;;18.48;5.80;;;;;;;10.34;60.14;101700.91;3591593;40;20075;-62
2022/05/04 06:21:11;;;;;;;17.85;5.60;;;;;;;10.48;59.59;101700.25;3591436;39;20071;-62
2022/05/04 06:23:37;;;;;;;18.05;5.95;;;;;;;10.62;59.83;101705.84;3591481;39;20670;-62
2022/05/04 06:26:03;;;;;;;12.45;6.25;;;;;;;10.75;59.05;101707.03;3590895;39;20063;-63
2022/05/04 06:28:28;;;;;;;14.18;6.05;;;;;;;10.92;59.69;101700.81;3589240;39;20064;-62
2022/05/04 06:36:23;;;;;;;13.05;6.53;;;;;;;11.54;56.70;101695.88;3592389;40;20062;-61
2022/05/04 06:38:48;;;;;;;15.68;6.45;;;;;;;11.68;56.62;101704.13;3590609;39;20063;-63
2022/05/04 06:41:14;;;;;;;14.35;6.25;;;;;;;11.66;56.82;101673.69;3589780;39;20066;-62
2022/05/04 06:43:41;;;;;;;13.70;6.43;;;;;;;11.98;55.18;101703.47;3588030;39;20382;-64
2022/05/04 06:46:07;;;;;;;11.18;5.43;;;;;;;12.13;54.89;101712.56;3589619;39;20067;-63
2022/05/04 06:48:32;;;;;;;15.70;5.55;;;;;;;12.16;54.18;101705.16;3588837;39;20052;-61
2022/05/04 06:50:58;;;;;;;13.30;5.43;;;;;;;12.26;53.73;101714.50;3590252;39;20056;-62
2022/05/04 06:53:23;;;;;;;13.52;5.72;;;;;;;12.34;53.18;101707.78;3589646;40;20056;-63
2022/05/04 06:55:49;;;;;;;11.23;5.57;;;;;;;12.43;53.46;101713.56;3578471;40;20048;-62
2022/05/04 06:58:15;;;;;;;14.45;5.85;;;;;;;12.56;53.62;101711.06;3591117;39;20493;-62
2022/05/04 07:00:40;;;;;;;16.25;5.82;;;;;;;12.70;54.25;101705.75;3589575;39;20390;-62
2022/05/04 07:03:06;;;;;;;11.60;5.28;;;;;;;12.77;52.61;101701.75;3590433;39;20060;-62
2022/05/04 07:05:31;;;;;;;14.27;5.40;;;;;;;12.88;52.37;101709.25;3589478;40;20047;-62
2022/05/04 07:07:57;;;;;;;13.05;5.15;;;;;;;12.94;51.72;101697.19;3589267;39;20429;-61
2022/05/04 07:10:22;;;;;;;11.63;4.97;;;;;;;13.15;50.92;101708.59;3590201;39;20067;-63
2022/05/04 07:12:49;;;;;;;11.88;5.00;;;;;;;13.38;50.88;101699.16;3587988;39;20059;-63
2022/05/04 07:15:14;;;;;;;12.75;5.32;;;;;;;13.55;49.44;101690.91;3590649;40;20283;-63
2022/05/04 07:17:40;;;;;;;13.40;5.32;;;;;;;13.67;50.34;101701.00;3588781;40;20058;-63
2022/05/04 07:20:06;;;;;;;14.05;5.63;;;;;;;13.78;49.73;101696.75;3589279;39;20060;-62
2022/05/04 07:22:32;;;;;;;13.40;5.40;;;;;;;13.97;50.79;101691.94;3579689;40;20078;-63
2022/05/04 07:24:57;;;;;;;16.60;5.47;;;;;;;14.12;49.32;101693.69;3589205;39;20115;-62
2022/05/04 07:27:23;;;;;;;12.38;4.80;;;;;;;14.26;48.52;101689.25;3590354;39;20051;-62
2022/05/04 07:29:49;;;;;;;14.80;5.13;;;;;;;14.31;47.98;101673.59;3589414;39;20067;-63
2022/05/04 07:32:14;;;;;;;17.33;4.60;;;;;;;14.52;47.49;101674.94;3589395;39;20354;-64
2022/05/04 07:34:40;;;;;;;13.50;5.05;;;;;;;14.78;46.92;101694.91;3589229;40;20051;-63
2022/05/04 07:37:06;;;;;;;9.80;4.90;;;;;;;14.99;46.99;101691.75;3589381;39;20283;-63
2022/05/04 07:42:26;;;;;;;13.68;4.72;;;;;;;15.24;44.98;101699.94;3590985;39;20042;-63
2022/05/04 07:45:12;;;;;;;10.40;5.00;;;;;;;15.15;44.62;101695.16;3592187;40;20056;-63
2022/05/04 07:47:39;;;;;;;10.48;4.97;;;;;;;15.29;46.00;101691.53;3590860;39;20075;-63
2022/05/04 07:50:08;;;;;;;9.93;5.57;;;;;;;15.39;45.55;101689.94;3590862;39;20101;-63
2022/05/04 07:52:35;;;;;;;12.95;5.50;;;;;;;15.52;45.54;101698.94;3590162;40;20048;-63
2022/05/04 07:55:01;;;;;;;9.10;5.20;;;;;;;15.74;46.33;101700.22;3588978;39;20060;-63
2022/05/04 07:57:27;;;;;;;9.88;4.68;;;;;;;15.99;43.93;101697.50;3591291;39;20098;-64
2022/05/04 08:05:24;;;;;;;9.55;5.60;;;;;;;16.10;43.81;101704.00;3591269;40;20129;-64
2022/05/04 08:07:50;;;;;;;8.98;5.40;;;;;;;16.19;43.72;101697.94;3589927;39;20065;-64
2022/05/04 08:10:17;;;;;;;14.82;6.60;;;;;;;16.26;42.77;101701.94;3595568;39;20160;-63
2022/05/04 08:12:42;;;;;;;11.57;5.70;;;;;;;16.42;42.60;101699.84;3589659;40;20420;-63
2022/05/04 08:15:09;;;;;;;13.68;5.90;;;;;;;16.63;41.77;101702.84;3589623;40;20052;-63
2022/05/04 08:17:34;;;;;;;11.32;5.63;;;;;;;16.77;42.04;101712.72;3590490;39;20081;-63
2022/05/04 08:20:00;;;;;;;13.98;6.40;;;;;;;17.04;41.27;101703.50;3593290;40;20404;-62
2022/05/04 08:22:27;;;;;;;11.20;5.97;;;;;;;17.12;42.65;101692.91;3593948;39;20095;-62
2022/05/04 08:24:52;;;;;;;11.80;6.95;;;;;;;17.51;40.65;101699.88;3589802;39;20133;-63
2022/05/04 08:27:19;;;;;;;9.70;5.53;;;;;;;17.64;39.96;101695.22;3592815;39;20055;-63
2022/05/04 08:29:45;;;;;;;11.65;6.28;;;;;;;17.64;39.64;101697.94;3590390;40;20048;-65
2022/05/04 08:32:11;;;;;;;10.07;6.18;;;;;;;17.77;39.19;101705.19;3591625;39;20134;-63
2022/05/04 08:34:37;;;;;;;10.00;5.88;;;;;;;17.91;39.84;101712.25;3591384;40;20056;-63
2022/05/04 08:37:03;;;;;;;10.52;6.03;;;;;;;17.78;39.56;101702.34;3589036;39;20052;-62
2022/05/04 08:39:28;;;;;;;15.07;6.93;;;;;;;17.95;38.96;101711.00;3590309;40;20060;-63
2022/05/04 08:41:54;;;;;;;11.60;6.18;;;;;;;18.01;38.38;101713.25;3591372;39;21809;-62
2022/05/04 08:44:19;;;;;;;12.10;6.82;;;;;;;18.03;38.85;101711.28;3591884;39;20064;-63
2022/05/04 08:46:45;;;;;;;14.75;6.28;;;;;;;18.05;39.98;101706.59;3591985;39;20931;-62
2022/05/04 08:49:14;;;;;;;11.82;6.47;;;;;;;18.16;38.54;101709.31;3591018;40;20095;-62
2022/05/04 08:51:40;;;;;;;12.40;6.50;;;;;;;18.22;39.51;101699.81;3590847;39;20050;-62
2022/05/04 08:54:08;;;;;;;14.75;6.72;;;;;;;18.27;38.66;101695.72;3593218;40;20105;-62
2022/05/04 08:56:35;;;;;;;12.32;6.72;;;;;;;18.36;38.70;101698.69;3590175;39;20066;-63
2022/05/04 08:59:05;;;;;;;9.25;6.15;;;;;;;18.43;37.80;101675.44;3592774;39;20067;-63
2022/05/04 09:01:38;;;;;;;13.10;6.65;;;;;;;18.79;36.79;101702.38;3590552;39;20095;-63
2022/05/04 09:04:06;;;;;;;12.50;6.95;;;;;;;18.78;35.84;101687.03;3590401;39;20055;-62
2022/05/04 09:06:41;;;;;;;12.93;6.00;;;;;;;18.90;37.99;101697.91;3589984;39;20367;-63
2022/05/04 09:09:13;;;;;;;10.90;5.90;;;;;;;19.15;35.40;101689.41;3590131;40;20125;-63
2022/05/04 09:11:46;;;;;;;10.38;6.10;;;;;;;19.39;35.82;101691.06;3590757;39;20908;-63
2022/05/04 09:14:25;;;;;;;11.52;5.63;;;;;;;19.44;37.36;101689.66;3589447;39;20051;-62
2022/05/04 09:16:52;;;;;;;9.88;5.65;;;;;;;19.35;35.36;101695.03;3591701;39;20083;-62
2022/05/04 09:19:20;;;;;;;9.52;5.72;;;;;;;19.37;36.92;101684.84;3589377;40;20055;-62
2022/05/04 09:21:47;;;;;;;11.60;5.80;;;;;;;19.51;36.56;101689.16;3590583;39;20055;-63
2022/05/04 09:24:27;;;;;;;11.23;6.13;;;;;;;19.48;35.86;101680.22;3590181;40;20092;-62
2022/05/04 09:26:58;;;;;;;13.13;6.00;;;;;;;19.43;37.17;101692.50;3589695;40;20056;-63
2022/05/04 09:29:35;;;;;;;12.05;6.55;;;;;;;19.61;35.56;101680.03;3590304;39;20060;-62
2022/05/04 09:32:13;;;;;;;10.25;5.55;;;;;;;19.75;33.98;101683.44;3587598;39;20378;-62
2022/05/04 09:34:39;;;;;;;9.63;5.78;;;;;;;19.88;34.70;101670.44;3590219;39;20051;-62
2022/05/04 09:45:39;;;;;;;8.65;5.63;;;;;;;19.91;36.08;101670.19;3587115;40;20046;-61
2022/05/04 09:48:06;;;;;;;13.95;6.85;;;;;;;19.83;34.21;101661.81;3588391;39;20052;-61
2022/05/04 09:50:39;;;;;;;10.80;6.40;;;;;;;19.84;34.11;101652.63;3587711;39;20369;-61
2022/05/04 09:53:05;;;;;;;;;;;;;;;19.91;35.51;101670.19;3591046;40;20058;-62
2022/05/04 09:55:31;;;;;;;11.48;6.57;;;;;;;20.03;35.25;101666.38;3586290;40;19940;-61
2022/05/04 09:57:57;;;;;;;13.45;6.05;;;;;;;20.00;36.07;101668.50;3588406;39;20052;-61
2022/05/04 10:00:26;;;;;;;10.82;6.28;;;;;;;20.17;35.18;101666.03;3587836;39;20064;-63
2022/05/04 10:02:54;;;;;;;9.55;5.78;;;;;;;20.28;35.02;101666.94;3587166;40;20048;-61
2022/05/04 10:05:22;;;;;;;30.23;6.45;;;;;;;20.40;34.49;101658.50;3586726;40;20280;-62
2022/05/04 10:07:51;;;;;;;8.80;5.95;;;;;;;20.47;34.71;101661.53;3586624;39;20055;-61
2022/05/04 10:10:20;;;;;;;9.90;5.82;;;;;;;20.45;34.74;101660.78;3587881;40;20068;-62
2022/05/04 10:12:48;;;;;;;10.35;5.13;;;;;;;20.45;33.31;101669.00;3591363;39;20056;-62
2022/05/04 10:15:17;;;;;;;9.50;5.80;;;;;;;20.55;34.19;101659.00;3585036;39;20040;-62
2022/05/04 10:18:01;;;;;;;44.38;9.45;;;;;;;20.46;32.93;101658.97;3592096;40;20066;-62
2022/05/04 10:20:40;;;;;;;10.38;6.18;;;;;;;20.64;34.01;101668.22;3586242;40;20298;-62
2022/05/04 10:23:21;;;;;;;11.80;6.20;;;;;;;20.77;34.08;101659.75;3586734;39;20295;-61
2022/05/04 10:25:50;;;;;;;12.38;6.60;;;;;;;20.87;33.80;101655.19;3588730;40;20071;-62
2022/05/04 10:28:15;;;;;;;11.77;6.63;;;;;;;20.88;33.92;101658.78;3589044;40;20051;-63
2022/05/04 10:33:32;;;;;;;8.10;5.53;;;;;;;20.98;32.42;101652.31;3595207;39;20051;-65
2022/05/04 10:36:33;;;;;;;11.18;6.15;;;;;;;20.99;32.73;101661.38;3594927;39;20087;-66
2022/05/04 10:39:04;;;;;;;10.70;6.30;;;;;;;21.01;32.91;101653.91;3598574;39;20051;-65
2022/05/04 10:41:34;;;;;;;10.93;6.18;;;;;;;20.96;33.47;101657.06;3592533;39;20064;-66
2022/05/04 10:44:01;;;;;;;11.45;6.40;;;;;;;20.91;33.46;101656.63;3587582;40;20043;-65
2022/05/04 10:46:30;;;;;;;11.60;6.50;;;;;;;20.79;33.23;101603.09;3589982;40;20052;-65
2022/05/04 10:49:10;;;;;;;11.90;6.78;;;;;;;21.05;32.80;101658.94;3587788;40;20158;-66
2022/05/04 10:51:38;;;;;;;9.35;5.95;;;;;;;20.94;32.62;101615.34;3586895;40;20140;-66
2022/05/04 10:54:09;;;;;;;12.18;6.22;;;;;;;21.31;33.04;101647.41;3586764;40;20044;-65
2022/05/04 10:56:40;;;;;;;11.35;6.35;;;;;;;21.45;32.91;101630.63;3588174;40;20117;-66
2022/05/04 10:59:07;;;;;;;12.68;5.78;;;;;;;21.46;30.63;101640.53;3588169;40;20406;-66
2022/05/04 11:01:43;;;;;;;8.23;5.20;;;;;;;21.64;31.27;101643.41;3589620;39;20061;-67
2022/05/04 11:04:13;;;;;;;10.52;6.25;;;;;;;21.85;31.07;101639.59;3586623;40;20422;-65
2022/05/04 11:06:55;;;;;;;9.45;5.70;;;;;;;22.07;31.57;101639.22;3586389;39;20050;-66
2022/05/04 11:09:31;;;;;;;10.25;6.60;;;;;;;22.06;31.18;101639.38;3586732;39;20062;-66
2022/05/04 11:12:01;;;;;;;12.35;6.20;;;;;;;21.95;31.77;101624.03;3587764;39;20048;-66
2022/05/04 11:14:28;;;;;;;12.27;6.53;;;;;;;22.00;32.72;101629.88;3585310;39;20068;-66
2022/05/04 11:16:57;;;;;;;8.95;5.47;;;;;;;22.34;31.94;101638.44;3590235;39;20328;-66
2022/05/04 11:19:25;;;;;;;8.38;6.15;;;;;;;22.45;30.56;101635.50;3588905;39;20101;-65
2022/05/04 11:21:51;;;;;;;10.02;5.88;;;;;;;22.55;30.14;101632.69;3590365;40;20063;-65
2022/05/04 11:24:17;;;;;;;11.77;6.88;;;;;;;22.60;31.23;101626.75;3588918;39;20048;-65
2022/05/04 11:26:50;;;;;;;10.13;6.30;;;;;;;22.72;31.39;101631.00;3589708;39;20063;-66
2022/05/04 11:29:19;;;;;;;9.80;6.07;;;;;;;23.02;29.46;101627.03;3587297;39;20051;-66
2022/05/04 11:31:55;;;;;;;11.20;6.57;;;;;;;22.97;28.58;101634.91;3587200;39;20095;-66
2022/05/04 11:34:24;;;;;;;10.38;6.72;;;;;;;22.80;29.36;101625.59;3590644;39;20044;-66
2022/05/04 11:36:52;;;;;;;11.43;6.97;;;;;;;22.83;29.45;101625.28;3589884;39;20048;-66
2022/05/04 11:39:27;;;;;;;11.70;7.35;;;;;;;23.10;29.46;101618.06;3591004;39;20048;-66
2022/05/04 11:41:55;;;;;;;11.57;6.88;;;;;;;22.68;29.33;101552.84;3586787;39;20044;-66
2022/05/04 11:44:25;;;;;;;10.20;6.57;;;;;;;23.08;30.57;101595.38;3586296;39;20121;-66
2022/05/04 11:46:54;;;;;;;10.20;6.78;;;;;;;23.39;29.80;101613.16;3588734;39;20058;-65
2022/05/04 11:49:23;;;;;;;9.43;6.15;;;;;;;23.49;29.05;101606.69;3588992;39;20056;-66
2022/05/04 11:51:51;;;;;;;11.77;6.68;;;;;;;23.58;28.68;101606.59;3591692;39;20066;-66
2022/05/04 11:54:17;;;;;;;10.88;6.60;;;;;;;23.56;28.25;101602.28;3591200;39;20060;-65
2022/05/04 11:56:43;;;;;;;11.57;6.63;;;;;;;23.64;29.58;101592.22;3590800;39;20149;-66